sensor_id;sensor_type;location;lat;lon;timestamp;pressure;altitude;pressure_sealevel;temperature;humidity
19736;BME280;32064;49.310;8.646;2023-01-25T00:01:14;102384.00;;;6.95;70.26
19736;BME280;32064;49.310;8.646;2023-01-25T00:03:40;102377.22;;;6.88;71.28
19736;BME280;32064;49.310;8.646;2023-01-25T00:06:05;102369.44;;;6.85;71.57
19736;BME280;32064;49.310;8.646;2023-01-25T00:08:31;102372.91;;;6.86;71.35
19736;BME280;32064;49.310;8.646;2023-01-25T00:10:57;102369.22;;;6.94;70.30
19736;BME280;32064;49.310;8.646;2023-01-25T00:13:22;102372.63;;;6.98;70.61
19736;BME280;32064;49.310;8.646;2023-01-25T00:15:48;102366.53;;;6.97;70.44
19736;BME280;32064;49.310;8.646;2023-01-25T00:18:13;102357.75;;;7.00;70.19
19736;BME280;32064;49.310;8.646;2023-01-25T00:20:39;102356.06;;;6.97;69.94
19736;BME280;32064;49.310;8.646;2023-01-25T00:23:04;102356.91;;;6.98;70.46
19736;BME280;32064;49.310;8.646;2023-01-25T00:25:30;102355.22;;;6.95;70.25
19736;BME280;32064;49.310;8.646;2023-01-25T00:27:55;102348.28;;;6.94;71.07
19736;BME280;32064;49.310;8.646;2023-01-25T00:30:20;102345.66;;;6.94;69.71
19736;BME280;32064;49.310;8.646;2023-01-25T00:32:52;102348.38;;;6.90;70.26
19736;BME280;32064;49.310;8.646;2023-01-25T00:35:19;102346.63;;;6.90;70.80
19736;BME280;32064;49.310;8.646;2023-01-25T00:37:46;102338.81;;;6.89;70.75
19736;BME280;32064;49.310;8.646;2023-01-25T00:40:14;102337.84;;;6.93;69.97
19736;BME280;32064;49.310;8.646;2023-01-25T00:42:39;102335.19;;;6.94;71.03
19736;BME280;32064;49.310;8.646;2023-01-25T00:45:05;102343.00;;;6.96;71.13
19736;BME280;32064;49.310;8.646;2023-01-25T00:47:31;102332.53;;;6.96;71.35
19736;BME280;32064;49.310;8.646;2023-01-25T00:49:56;102322.13;;;6.94;71.24
19736;BME280;32064;49.310;8.646;2023-01-25T00:52:22;102323.75;;;6.98;70.23
19736;BME280;32064;49.310;8.646;2023-01-25T00:54:47;102326.28;;;7.02;70.32
19736;BME280;32064;49.310;8.646;2023-01-25T00:57:13;102323.69;;;7.02;70.09
19736;BME280;32064;49.310;8.646;2023-01-25T00:59:38;102317.59;;;7.01;70.32
19736;BME280;32064;49.310;8.646;2023-01-25T01:02:09;102322.81;;;7.01;71.20
19736;BME280;32064;49.310;8.646;2023-01-25T01:04:34;102314.22;;;6.96;70.77
19736;BME280;32064;49.310;8.646;2023-01-25T01:07:00;102314.28;;;6.94;71.65
19736;BME280;32064;49.310;8.646;2023-01-25T01:09:26;102310.91;;;6.89;70.81
19736;BME280;32064;49.310;8.646;2023-01-25T01:11:52;102307.31;;;6.93;71.63
19736;BME280;32064;49.310;8.646;2023-01-25T01:14:17;102310.66;;;7.00;70.59
19736;BME280;32064;49.310;8.646;2023-01-25T01:16:43;102311.44;;;7.04;70.93
19736;BME280;32064;49.310;8.646;2023-01-25T01:19:08;102301.88;;;7.01;70.55
19736;BME280;32064;49.310;8.646;2023-01-25T01:21:34;102307.97;;;7.02;71.05
19736;BME280;32064;49.310;8.646;2023-01-25T01:23:59;102310.53;;;7.05;71.14
19736;BME280;32064;49.310;8.646;2023-01-25T01:26:25;102301.78;;;7.06;70.36
19736;BME280;32064;49.310;8.646;2023-01-25T01:28:50;102305.25;;;7.06;71.04
19736;BME280;32064;49.310;8.646;2023-01-25T01:31:21;102312.28;;;7.04;69.98
19736;BME280;32064;49.310;8.646;2023-01-25T01:33:51;102319.25;;;7.05;70.83
19736;BME280;32064;49.310;8.646;2023-01-25T01:36:19;102310.56;;;7.03;70.63
19736;BME280;32064;49.310;8.646;2023-01-25T01:38:45;102314.03;;;7.05;70.19
19736;BME280;32064;49.310;8.646;2023-01-25T01:41:11;102312.34;;;7.03;69.91
19736;BME280;32064;49.310;8.646;2023-01-25T01:43:37;102311.44;;;7.04;70.86
19736;BME280;32064;49.310;8.646;2023-01-25T01:46:35;102318.53;;;6.98;70.97
19736;BME280;32064;49.310;8.646;2023-01-25T01:49:26;102314.22;;;6.96;70.31
19736;BME280;32064;49.310;8.646;2023-01-25T01:52:03;102318.41;;;7.03;70.44
19736;BME280;32064;49.310;8.646;2023-01-25T01:54:39;102311.53;;;6.99;70.78
19736;BME280;32064;49.310;8.646;2023-01-25T02:00:18;102313.38;;;6.95;70.60
19736;BME280;32064;49.310;8.646;2023-01-25T02:02:45;102313.28;;;6.98;70.12
19736;BME280;32064;49.310;8.646;2023-01-25T02:05:17;102311.69;;;6.93;70.30
19736;BME280;32064;49.310;8.646;2023-01-25T02:07:46;102311.59;;;6.96;70.99
19736;BME280;32064;49.310;8.646;2023-01-25T02:10:13;102315.03;;;7.00;70.24
19736;BME280;32064;49.310;8.646;2023-01-25T02:12:39;102311.59;;;6.97;70.44
19736;BME280;32064;49.310;8.646;2023-01-25T02:15:05;102303.69;;;6.99;71.11
19736;BME280;32064;49.310;8.646;2023-01-25T02:17:34;102303.72;;;6.97;70.99
19736;BME280;32064;49.310;8.646;2023-01-25T02:22:44;102302.03;;;6.95;71.30
19736;BME280;32064;49.310;8.646;2023-01-25T02:25:15;102302.91;;;6.95;70.26
19736;BME280;32064;49.310;8.646;2023-01-25T02:27:45;102303.97;;;6.88;70.61
19736;BME280;32064;49.310;8.646;2023-01-25T02:30:13;102295.28;;;6.86;71.26
19736;BME280;32064;49.310;8.646;2023-01-25T02:32:38;102293.66;;;6.81;70.59
19736;BME280;32064;49.310;8.646;2023-01-25T02:35:04;102288.47;;;6.79;70.67
19736;BME280;32064;49.310;8.646;2023-01-25T02:37:30;102288.66;;;6.71;71.59
19736;BME280;32064;49.310;8.646;2023-01-25T02:39:55;102284.28;;;6.72;71.66
19736;BME280;32064;49.310;8.646;2023-01-25T02:42:21;102288.75;;;6.67;72.01
19736;BME280;32064;49.310;8.646;2023-01-25T02:44:47;102291.44;;;6.64;70.96
19736;BME280;32064;49.310;8.646;2023-01-25T02:47:13;102291.28;;;6.70;71.99
19736;BME280;32064;49.310;8.646;2023-01-25T02:49:39;102288.81;;;6.65;71.34
19736;BME280;32064;49.310;8.646;2023-01-25T02:52:04;102293.22;;;6.63;71.13
19736;BME280;32064;49.310;8.646;2023-01-25T02:54:30;102294.06;;;6.64;71.89
19736;BME280;32064;49.310;8.646;2023-01-25T02:56:55;102298.50;;;6.60;71.05
19736;BME280;32064;49.310;8.646;2023-01-25T02:59:21;102297.59;;;6.63;71.69
19736;BME280;32064;49.310;8.646;2023-01-25T03:01:47;102286.19;;;6.65;70.88
19736;BME280;32064;49.310;8.646;2023-01-25T03:04:12;102295.81;;;6.63;71.32
19736;BME280;32064;49.310;8.646;2023-01-25T03:06:38;102287.13;;;6.63;72.10
19736;BME280;32064;49.310;8.646;2023-01-25T03:09:05;102282.75;;;6.62;70.98
19736;BME280;32064;49.310;8.646;2023-01-25T03:11:31;102279.34;;;6.60;70.94
19736;BME280;32064;49.310;8.646;2023-01-25T03:13:57;102281.16;;;6.56;72.19
19736;BME280;32064;49.310;8.646;2023-01-25T03:16:22;102281.97;;;6.58;72.71
19736;BME280;32064;49.310;8.646;2023-01-25T03:18:47;102283.75;;;6.56;71.30
19736;BME280;32064;49.310;8.646;2023-01-25T03:21:16;102282.19;;;6.49;72.17
19736;BME280;32064;49.310;8.646;2023-01-25T03:23:43;102274.34;;;6.49;72.57
19736;BME280;32064;49.310;8.646;2023-01-25T03:26:11;102281.19;;;6.55;72.37
19736;BME280;32064;49.310;8.646;2023-01-25T03:28:38;102275.06;;;6.56;72.44
19736;BME280;32064;49.310;8.646;2023-01-25T03:31:05;102279.38;;;6.57;72.97
19736;BME280;32064;49.310;8.646;2023-01-25T03:33:31;102272.44;;;6.57;72.68
19736;BME280;32064;49.310;8.646;2023-01-25T03:35:57;102274.13;;;6.60;71.29
19736;BME280;32064;49.310;8.646;2023-01-25T03:38:22;102272.38;;;6.59;71.40
19736;BME280;32064;49.310;8.646;2023-01-25T03:40:48;102277.66;;;6.57;71.77
19736;BME280;32064;49.310;8.646;2023-01-25T03:43:14;102273.34;;;6.55;71.60
19736;BME280;32064;49.310;8.646;2023-01-25T03:45:39;102276.81;;;6.55;72.15
19736;BME280;32064;49.310;8.646;2023-01-25T03:48:05;102271.63;;;6.53;71.98
19736;BME280;32064;49.310;8.646;2023-01-25T03:50:30;102284.75;;;6.52;72.67
19736;BME280;32064;49.310;8.646;2023-01-25T03:52:56;102283.97;;;6.48;71.99
19736;BME280;32064;49.310;8.646;2023-01-25T03:55:27;102278.75;;;6.47;71.86
19736;BME280;32064;49.310;8.646;2023-01-25T03:57:52;102279.59;;;6.49;71.62
19736;BME280;32064;49.310;8.646;2023-01-25T04:00:18;102284.81;;;6.49;72.64
19736;BME280;32064;49.310;8.646;2023-01-25T04:02:46;102282.28;;;6.46;72.52
19736;BME280;32064;49.310;8.646;2023-01-25T04:05:12;102275.28;;;6.46;72.07
19736;BME280;32064;49.310;8.646;2023-01-25T04:07:37;102288.44;;;6.42;73.11
19736;BME280;32064;49.310;8.646;2023-01-25T04:10:04;102284.97;;;6.43;72.47
19736;BME280;32064;49.310;8.646;2023-01-25T04:12:29;102279.81;;;6.40;72.97
19736;BME280;32064;49.310;8.646;2023-01-25T04:14:55;102281.59;;;6.36;71.94
19736;BME280;32064;49.310;8.646;2023-01-25T04:17:20;102276.38;;;6.36;72.02
19736;BME280;32064;49.310;8.646;2023-01-25T04:19:45;102277.22;;;6.37;73.18
19736;BME280;32064;49.310;8.646;2023-01-25T04:22:12;102276.44;;;6.33;72.32
19736;BME280;32064;49.310;8.646;2023-01-25T04:24:37;102270.34;;;6.34;72.52
19736;BME280;32064;49.310;8.646;2023-01-25T04:27:03;102267.09;;;6.23;72.42
19736;BME280;32064;49.310;8.646;2023-01-25T04:29:29;102267.97;;;6.22;73.60
19736;BME280;32064;49.310;8.646;2023-01-25T04:31:55;102269.53;;;6.30;72.18
19736;BME280;32064;49.310;8.646;2023-01-25T04:34:20;102265.28;;;6.26;72.44
19736;BME280;32064;49.310;8.646;2023-01-25T04:36:45;102265.41;;;6.20;73.01
19736;BME280;32064;49.310;8.646;2023-01-25T04:39:11;102263.66;;;6.21;72.79
19736;BME280;32064;49.310;8.646;2023-01-25T04:41:36;102279.41;;;6.18;72.34
19736;BME280;32064;49.310;8.646;2023-01-25T04:44:02;102276.81;;;6.16;72.01
19736;BME280;32064;49.310;8.646;2023-01-25T04:46:27;102267.25;;;6.15;71.73
19736;BME280;32064;49.310;8.646;2023-01-25T04:48:55;102272.50;;;6.14;72.67
19736;BME280;32064;49.310;8.646;2023-01-25T04:51:21;102269.00;;;6.15;73.49
19736;BME280;32064;49.310;8.646;2023-01-25T04:53:46;102267.28;;;6.14;71.95
19736;BME280;32064;49.310;8.646;2023-01-25T04:56:12;102265.75;;;6.03;72.20
19736;BME280;32064;49.310;8.646;2023-01-25T04:58:37;102268.38;;;6.03;71.94
19736;BME280;32064;49.310;8.646;2023-01-25T05:01:03;102263.97;;;6.05;71.72
19736;BME280;32064;49.310;8.646;2023-01-25T05:03:29;102256.13;;;6.05;72.24
19736;BME280;32064;49.310;8.646;2023-01-25T05:05:54;102256.09;;;6.07;73.39
19736;BME280;32064;49.310;8.646;2023-01-25T05:08:20;102250.22;;;5.97;73.18
19736;BME280;32064;49.310;8.646;2023-01-25T05:10:45;102255.50;;;5.91;72.44
19736;BME280;32064;49.310;8.646;2023-01-25T05:13:10;102254.88;;;5.80;73.97
19736;BME280;32064;49.310;8.646;2023-01-25T05:15:36;102257.25;;;5.94;73.24
19736;BME280;32064;49.310;8.646;2023-01-25T05:18:02;102247.63;;;5.97;72.87
19736;BME280;32064;49.310;8.646;2023-01-25T05:20:27;102256.19;;;6.02;73.03
19736;BME280;32064;49.310;8.646;2023-01-25T05:22:53;102252.72;;;6.02;71.72
19736;BME280;32064;49.310;8.646;2023-01-25T05:25:19;102254.50;;;6.00;72.82
19736;BME280;32064;49.310;8.646;2023-01-25T05:28:04;102244.00;;;6.03;73.16
19736;BME280;32064;49.310;8.646;2023-01-25T05:30:31;102245.66;;;6.05;71.01
19736;BME280;32064;49.310;8.646;2023-01-25T05:32:56;102249.13;;;6.07;71.78
19736;BME280;32064;49.310;8.646;2023-01-25T05:35:21;102249.06;;;6.11;71.81
19736;BME280;32064;49.310;8.646;2023-01-25T05:37:47;102245.56;;;6.12;72.28
19736;BME280;32064;49.310;8.646;2023-01-25T05:40:12;102242.97;;;6.10;71.31
19736;BME280;32064;49.310;8.646;2023-01-25T05:42:38;102248.41;;;5.99;72.94
19736;BME280;32064;49.310;8.646;2023-01-25T05:45:04;102247.63;;;5.97;71.93
19736;BME280;32064;49.310;8.646;2023-01-25T05:47:30;102238.09;;;5.95;71.79
19736;BME280;32064;49.310;8.646;2023-01-25T05:49:55;102235.44;;;5.96;71.91
19736;BME280;32064;49.310;8.646;2023-01-25T05:52:20;102228.50;;;5.95;72.76
19736;BME280;32064;49.310;8.646;2023-01-25T05:54:47;102224.97;;;5.98;71.79
19736;BME280;32064;49.310;8.646;2023-01-25T05:57:13;102218.91;;;5.94;73.12
19736;BME280;32064;49.310;8.646;2023-01-25T05:59:39;102211.09;;;5.93;71.40
19736;BME280;32064;49.310;8.646;2023-01-25T06:02:04;102202.38;;;5.94;71.70
19736;BME280;32064;49.310;8.646;2023-01-25T06:04:32;102199.88;;;5.88;72.45
19736;BME280;32064;49.310;8.646;2023-01-25T06:06:57;102203.34;;;5.90;72.57
19736;BME280;32064;49.310;8.646;2023-01-25T06:09:23;102196.50;;;5.84;72.34
19736;BME280;32064;49.310;8.646;2023-01-25T06:11:49;102212.31;;;5.76;72.03
19736;BME280;32064;49.310;8.646;2023-01-25T06:14:14;102204.38;;;5.81;71.72
19736;BME280;32064;49.310;8.646;2023-01-25T06:16:40;102205.25;;;5.81;72.25
19736;BME280;32064;49.310;8.646;2023-01-25T06:19:06;102205.53;;;5.68;72.18
19736;BME280;32064;49.310;8.646;2023-01-25T06:21:33;102201.00;;;5.76;71.38
19736;BME280;32064;49.310;8.646;2023-01-25T06:24:03;102213.28;;;5.71;71.74
19736;BME280;32064;49.310;8.646;2023-01-25T06:26:28;102198.81;;;5.56;71.56
19736;BME280;32064;49.310;8.646;2023-01-25T06:28:53;102199.59;;;5.59;71.22
19736;BME280;32064;49.310;8.646;2023-01-25T06:31:19;102199.06;;;5.42;72.24
19736;BME280;32064;49.310;8.646;2023-01-25T06:33:49;102196.16;;;5.57;71.24
19736;BME280;32064;49.310;8.646;2023-01-25T06:36:16;102203.75;;;5.68;71.86
19736;BME280;32064;49.310;8.646;2023-01-25T06:38:43;102213.28;;;5.72;72.46
19736;BME280;32064;49.310;8.646;2023-01-25T06:41:11;102209.75;;;5.75;72.01
19736;BME280;32064;49.310;8.646;2023-01-25T06:43:37;102212.28;;;5.78;72.35
19736;BME280;32064;49.310;8.646;2023-01-25T06:46:04;102208.84;;;5.74;71.73
19736;BME280;32064;49.310;8.646;2023-01-25T06:48:32;102217.50;;;5.78;71.43
19736;BME280;32064;49.310;8.646;2023-01-25T06:50:59;102220.00;;;5.82;71.81
19736;BME280;32064;49.310;8.646;2023-01-25T06:53:27;102216.69;;;5.74;72.41
19736;BME280;32064;49.310;8.646;2023-01-25T06:55:59;102215.88;;;5.72;72.85
19736;BME280;32064;49.310;8.646;2023-01-25T06:58:27;102210.75;;;5.68;72.00
19736;BME280;32064;49.310;8.646;2023-01-25T07:00:53;102216.66;;;5.76;73.20
19736;BME280;32064;49.310;8.646;2023-01-25T07:03:18;102212.31;;;5.76;72.24
19736;BME280;32064;49.310;8.646;2023-01-25T07:05:44;102205.44;;;5.72;72.83
19736;BME280;32064;49.310;8.646;2023-01-25T07:08:10;102214.91;;;5.76;72.65
19736;BME280;32064;49.310;8.646;2023-01-25T07:10:36;102216.59;;;5.80;72.91
19736;BME280;32064;49.310;8.646;2023-01-25T07:13:01;102208.75;;;5.80;73.71
19736;BME280;32064;49.310;8.646;2023-01-25T07:15:26;102214.00;;;5.77;73.68
19736;BME280;32064;49.310;8.646;2023-01-25T07:17:52;102202.72;;;5.77;72.59
19736;BME280;32064;49.310;8.646;2023-01-25T07:20:17;102204.63;;;5.69;73.17
19736;BME280;32064;49.310;8.646;2023-01-25T07:22:43;102202.91;;;5.69;71.52
19736;BME280;32064;49.310;8.646;2023-01-25T07:25:08;102193.19;;;5.74;72.22
19736;BME280;32064;49.310;8.646;2023-01-25T07:27:34;102193.19;;;5.74;73.40
19736;BME280;32064;49.310;8.646;2023-01-25T07:29:59;102202.72;;;5.77;72.96
19736;BME280;32064;49.310;8.646;2023-01-25T07:32:25;102200.94;;;5.79;72.62
19736;BME280;32064;49.310;8.646;2023-01-25T07:34:51;102198.25;;;5.82;73.09
19736;BME280;32064;49.310;8.646;2023-01-25T07:37:16;102203.47;;;5.82;72.25
19736;BME280;32064;49.310;8.646;2023-01-25T07:39:42;102220.91;;;5.81;73.02
19736;BME280;32064;49.310;8.646;2023-01-25T07:42:12;102207.72;;;5.88;72.07
19736;BME280;32064;49.310;8.646;2023-01-25T07:44:38;102209.44;;;5.89;71.53
19736;BME280;32064;49.310;8.646;2023-01-25T07:47:03;102204.16;;;5.92;72.74
19736;BME280;32064;49.310;8.646;2023-01-25T07:49:29;102204.09;;;5.96;72.61
19736;BME280;32064;49.310;8.646;2023-01-25T07:51:54;102209.22;;;6.01;71.75
19736;BME280;32064;49.310;8.646;2023-01-25T07:54:20;102206.63;;;5.99;71.97
19736;BME280;32064;49.310;8.646;2023-01-25T07:56:45;102203.09;;;6.02;72.27
19736;BME280;32064;49.310;8.646;2023-01-25T07:59:10;102195.25;;;6.02;72.50
19736;BME280;32064;49.310;8.646;2023-01-25T08:01:37;102203.06;;;6.03;72.92
19736;BME280;32064;49.310;8.646;2023-01-25T08:04:03;102197.78;;;6.05;72.48
19736;BME280;32064;49.310;8.646;2023-01-25T08:06:31;102197.78;;;6.06;72.38
19736;BME280;32064;49.310;8.646;2023-01-25T08:09:02;102192.50;;;6.08;71.89
19736;BME280;32064;49.310;8.646;2023-01-25T08:11:30;102197.66;;;6.11;72.09
19736;BME280;32064;49.310;8.646;2023-01-25T08:13:56;102202.88;;;6.11;72.97
19736;BME280;32064;49.310;8.646;2023-01-25T08:16:24;102199.41;;;6.12;72.64
19736;BME280;32064;49.310;8.646;2023-01-25T08:18:52;102201.09;;;6.13;72.04
19736;BME280;32064;49.310;8.646;2023-01-25T08:21:18;102201.16;;;6.10;72.72
19736;BME280;32064;49.310;8.646;2023-01-25T08:23:44;102199.41;;;6.12;73.29
19736;BME280;32064;49.310;8.646;2023-01-25T08:26:11;102202.84;;;6.13;71.52
19736;BME280;32064;49.310;8.646;2023-01-25T08:28:37;102197.59;;;6.14;73.31
19736;BME280;32064;49.310;8.646;2023-01-25T08:31:08;102199.31;;;6.15;72.74
19736;BME280;32064;49.310;8.646;2023-01-25T08:33:35;102189.72;;;6.16;73.01
19736;BME280;32064;49.310;8.646;2023-01-25T08:36:01;102189.72;;;6.16;72.12
19736;BME280;32064;49.310;8.646;2023-01-25T08:38:26;102190.47;;;6.21;72.50
19736;BME280;32064;49.310;8.646;2023-01-25T08:40:52;102192.19;;;6.22;73.19
19736;BME280;32064;49.310;8.646;2023-01-25T08:43:17;102193.94;;;6.23;72.78
19736;BME280;32064;49.310;8.646;2023-01-25T08:45:43;102186.88;;;6.25;72.58
19736;BME280;32064;49.310;8.646;2023-01-25T08:48:08;102177.38;;;6.22;71.93
19736;BME280;32064;49.310;8.646;2023-01-25T08:50:37;102181.78;;;6.20;71.79
19736;BME280;32064;49.310;8.646;2023-01-25T08:53:02;102180.91;;;6.20;73.00
19736;BME280;32064;49.310;8.646;2023-01-25T08:55:27;102179.19;;;6.19;71.88
19736;BME280;32064;49.310;8.646;2023-01-25T08:57:53;102183.53;;;6.20;71.62
19736;BME280;32064;49.310;8.646;2023-01-25T09:00:19;102172.25;;;6.18;72.60
19736;BME280;32064;49.310;8.646;2023-01-25T09:02:45;102168.81;;;6.16;71.63
19736;BME280;32064;49.310;8.646;2023-01-25T09:05:10;102172.25;;;6.18;72.92
19736;BME280;32064;49.310;8.646;2023-01-25T09:07:35;102168.72;;;6.20;72.63
19736;BME280;32064;49.310;8.646;2023-01-25T09:10:06;102168.72;;;6.20;72.37
19736;BME280;32064;49.310;8.646;2023-01-25T09:12:33;102164.22;;;6.27;72.92
19736;BME280;32064;49.310;8.646;2023-01-25T09:14:59;102158.06;;;6.29;71.58
19736;BME280;32064;49.310;8.646;2023-01-25T09:17:25;102158.88;;;6.32;73.13
19736;BME280;32064;49.310;8.646;2023-01-25T09:19:50;102164.91;;;6.34;71.91
19736;BME280;32064;49.310;8.646;2023-01-25T09:22:15;102153.69;;;6.30;72.83
19736;BME280;32064;49.310;8.646;2023-01-25T09:24:41;102151.03;;;6.32;73.12
19736;BME280;32064;49.310;8.646;2023-01-25T09:27:06;102156.13;;;6.36;72.11
19736;BME280;32064;49.310;8.646;2023-01-25T09:29:31;102143.91;;;6.38;71.72
19736;BME280;32064;49.310;8.646;2023-01-25T09:31:57;102157.81;;;6.40;72.17
19736;BME280;32064;49.310;8.646;2023-01-25T09:34:22;102160.41;;;6.40;71.49
19736;BME280;32064;49.310;8.646;2023-01-25T09:36:48;102158.69;;;6.39;71.94
19736;BME280;32064;49.310;8.646;2023-01-25T09:39:13;102153.44;;;6.41;72.95
19736;BME280;32064;49.310;8.646;2023-01-25T09:47:20;102151.00;;;6.33;72.89
19736;BME280;32064;49.310;8.646;2023-01-25T09:50:16;102152.72;;;6.34;71.96
19736;BME280;32064;49.310;8.646;2023-01-25T09:55:21;102158.75;;;6.36;73.24
19736;BME280;32064;49.310;8.646;2023-01-25T09:57:49;102158.72;;;6.38;72.87
19736;BME280;32064;49.310;8.646;2023-01-25T10:00:21;102153.50;;;6.38;72.55
19736;BME280;32064;49.310;8.646;2023-01-25T10:03:17;102153.59;;;6.35;72.56
19736;BME280;32064;49.310;8.646;2023-01-25T10:05:49;102143.81;;;6.41;72.77
19736;BME280;32064;49.310;8.646;2023-01-25T10:08:22;102153.34;;;6.44;72.53
19736;BME280;32064;49.310;8.646;2023-01-25T10:11:26;102144.56;;;6.46;71.43
19736;BME280;32064;49.310;8.646;2023-01-25T10:13:44;102132.34;;;6.48;72.55
19736;BME280;32064;49.310;8.646;2023-01-25T10:16:23;102133.28;;;6.46;71.89
19736;BME280;32064;49.310;8.646;2023-01-25T10:21:47;102130.56;;;6.49;73.26
19736;BME280;32064;49.310;8.646;2023-01-25T10:24:39;102124.53;;;6.45;73.10
19736;BME280;32064;49.310;8.646;2023-01-25T10:30:30;102121.94;;;6.45;73.15
19736;BME280;32064;49.310;8.646;2023-01-25T10:33:01;102119.25;;;6.48;72.21
19736;BME280;32064;49.310;8.646;2023-01-25T10:35:35;102118.44;;;6.46;72.34
19736;BME280;32064;49.310;8.646;2023-01-25T10:38:08;102115.69;;;6.51;72.91
19736;BME280;32064;49.310;8.646;2023-01-25T10:40:48;102112.13;;;6.55;72.32
19736;BME280;32064;49.310;8.646;2023-01-25T10:43:21;102120.72;;;6.59;71.66
19736;BME280;32064;49.310;8.646;2023-01-25T10:45:47;102102.34;;;6.62;71.50
19736;BME280;32064;49.310;8.646;2023-01-25T10:48:23;102095.41;;;6.61;72.77
19736;BME280;32064;49.310;8.646;2023-01-25T10:50:55;102098.94;;;6.60;71.08
19736;BME280;32064;49.310;8.646;2023-01-25T10:53:38;102102.41;;;6.60;71.05
19736;BME280;32064;49.310;8.646;2023-01-25T10:58:37;102091.97;;;6.59;72.89
19736;BME280;32064;49.310;8.646;2023-01-25T11:01:04;102087.84;;;6.50;71.71
19736;BME280;32064;49.310;8.646;2023-01-25T11:03:36;102091.28;;;6.52;73.15
19736;BME280;32064;49.310;8.646;2023-01-25T11:06:02;102079.16;;;6.49;72.88
19736;BME280;32064;49.310;8.646;2023-01-25T11:08:35;102075.44;;;6.57;71.89
19736;BME280;32064;49.310;8.646;2023-01-25T11:11:16;102065.00;;;6.57;72.66
19736;BME280;32064;49.310;8.646;2023-01-25T11:13:46;102063.84;;;6.68;71.86
19736;BME280;32064;49.310;8.646;2023-01-25T11:16:26;102056.88;;;6.67;72.12
19736;BME280;32064;49.310;8.646;2023-01-25T11:18:54;102055.94;;;6.70;71.28
19736;BME280;32064;49.310;8.646;2023-01-25T11:21:24;102042.03;;;6.68;70.72
19736;BME280;32064;49.310;8.646;2023-01-25T11:24:27;102043.97;;;6.61;70.85
19736;BME280;32064;49.310;8.646;2023-01-25T11:27:12;102038.72;;;6.63;71.98
19736;BME280;32064;49.310;8.646;2023-01-25T11:29:38;102038.53;;;6.69;70.67
19736;BME280;32064;49.310;8.646;2023-01-25T11:32:19;102035.22;;;6.62;71.86
19736;BME280;32064;49.310;8.646;2023-01-25T11:34:48;102025.66;;;6.61;70.75
19736;BME280;32064;49.310;8.646;2023-01-25T11:40:12;102017.53;;;6.72;70.99
19736;BME280;32064;49.310;8.646;2023-01-25T11:43:04;102003.53;;;6.74;71.54
19736;BME280;32064;49.310;8.646;2023-01-25T11:45:58;101998.59;;;6.62;70.93
19736;BME280;32064;49.310;8.646;2023-01-25T11:48:55;101998.31;;;6.73;70.58
19736;BME280;32064;49.310;8.646;2023-01-25T11:51:35;101989.69;;;6.71;71.16
19736;BME280;32064;49.310;8.646;2023-01-25T11:57:20;101986.41;;;6.63;70.59
19736;BME280;32064;49.310;8.646;2023-01-25T12:06:07;101967.22;;;6.62;71.72
19736;BME280;32064;49.310;8.646;2023-01-25T12:11:38;101956.19;;;6.52;71.95
19736;BME280;32064;49.310;8.646;2023-01-25T12:16:59;101943.16;;;6.51;72.20
19736;BME280;32064;49.310;8.646;2023-01-25T12:25:55;101930.81;;;6.56;72.19
19736;BME280;32064;49.310;8.646;2023-01-25T12:28:40;101922.22;;;6.52;71.51
19736;BME280;32064;49.310;8.646;2023-01-25T12:31:14;101915.03;;;6.59;72.24
19736;BME280;32064;49.310;8.646;2023-01-25T12:33:49;101909.72;;;6.62;71.91
19736;BME280;32064;49.310;8.646;2023-01-25T12:39:02;101901.97;;;6.59;71.84
19736;BME280;32064;49.310;8.646;2023-01-25T12:41:38;101901.94;;;6.61;71.07
19736;BME280;32064;49.310;8.646;2023-01-25T12:52:06;101874.00;;;6.63;70.73
19736;BME280;32064;49.310;8.646;2023-01-25T12:54:41;101867.28;;;6.54;71.23
19736;BME280;32064;49.310;8.646;2023-01-25T12:57:22;101865.53;;;6.53;72.00
19736;BME280;32064;49.310;8.646;2023-01-25T13:05:25;101856.75;;;6.56;70.33
19736;BME280;32064;49.310;8.646;2023-01-25T13:10:42;101854.91;;;6.59;70.43
19736;BME280;32064;49.310;8.646;2023-01-25T13:13:24;101857.38;;;6.64;70.92
19736;BME280;32064;49.310;8.646;2023-01-25T13:15:50;101847.56;;;6.72;69.95
19736;BME280;32064;49.310;8.646;2023-01-25T13:20:50;101841.41;;;6.73;70.48
19736;BME280;32064;49.310;8.646;2023-01-25T13:24:06;101827.16;;;6.55;70.68
19736;BME280;32064;49.310;8.646;2023-01-25T13:26:36;101824.31;;;6.63;70.45
19736;BME280;32064;49.310;8.646;2023-01-25T13:29:02;101826.75;;;6.67;70.73
19736;BME280;32064;49.310;8.646;2023-01-25T13:34:09;101826.75;;;6.67;69.90
19736;BME280;32064;49.310;8.646;2023-01-25T13:42:22;101830.41;;;6.62;70.58
19736;BME280;32064;49.310;8.646;2023-01-25T13:44:52;101828.22;;;6.48;69.46
19736;BME280;32064;49.310;8.646;2023-01-25T13:47:21;101826.13;;;6.59;69.94
19736;BME280;32064;49.310;8.646;2023-01-25T13:50:21;101821.81;;;6.58;69.86
19736;BME280;32064;49.310;8.646;2023-01-25T13:52:58;101820.03;;;6.60;69.91
19736;BME280;32064;49.310;8.646;2023-01-25T13:55:24;101816.59;;;6.58;69.46
19736;BME280;32064;49.310;8.646;2023-01-25T13:57:50;101812.13;;;6.62;69.69
19736;BME280;32064;49.310;8.646;2023-01-25T14:00:17;101813.84;;;6.63;69.82
19736;BME280;32064;49.310;8.646;2023-01-25T14:02:44;101808.72;;;6.60;69.92
19736;BME280;32064;49.310;8.646;2023-01-25T14:05:21;101806.03;;;6.61;69.19
19736;BME280;32064;49.310;8.646;2023-01-25T14:07:49;101799.03;;;6.62;69.57
19736;BME280;32064;49.310;8.646;2023-01-25T14:10:24;101794.66;;;6.62;68.90
19736;BME280;32064;49.310;8.646;2023-01-25T14:12:52;101781.53;;;6.65;69.59
19736;BME280;32064;49.310;8.646;2023-01-25T14:15:23;101788.75;;;6.57;70.15
19736;BME280;32064;49.310;8.646;2023-01-25T14:18:11;101780.16;;;6.24;70.66
19736;BME280;32064;49.310;8.646;2023-01-25T14:20:38;101773.19;;;6.24;69.63
19736;BME280;32064;49.310;8.646;2023-01-25T14:23:04;101770.91;;;6.42;69.98
19736;BME280;32064;49.310;8.646;2023-01-25T14:25:31;101773.63;;;6.39;69.20